WIII/CGK METAR and TAF weather

Enter ICAO airport designator
Station Type Date Time Source
WIII METAR 2020/07/06 20:00 UTC NOAA

WIII 062000Z 11004KT 5000 -RA SCT020 25/23 Q1009 NOSIG


Station Type Date Time Source
WIII Decoded METAR 2020/07/06 20:00 UTC NOAA

Jakarta / Soekarno-Hatta, Indonesia (WIII) 06-07S 106-39E 8M
Jul 06, 2020 - 04:00 PM EDT / 2020.07.06 2000 UTC
Wind: from the ESE (110 degrees) at 5 MPH (4 KT):0
Visibility: 3 mile(s):0
Sky conditions: partly cloudy
Weather: light rain
Temperature: 77 F (25 C)
Dew Point: 73 F (23 C)
Relative Humidity: 88%
Pressure (altimeter): 29.80 in. Hg (1009 hPa)
ob: WIII 062000Z 11004KT 5000 -RA SCT020 25/23 Q1009 NOSIG
cycle: 20

Station Type Date Time Source
WIII TAF 2020/07/06 18:43 UTC NOAA

TAF WIII 061700Z 0618/0724 13005KT 6000 SCT020
TEMPO 0618/0622 4000 -TSRA FEW015CB

Example: see airport list